sensor_id;sensor_type;location;lat;lon;timestamp;P1;durP1;ratioP1;P2;durP2;ratioP2
57746;SDS011;43580;44.014;20.466;2023-11-21T00:01:59;263.85;;;135.88;;
57746;SDS011;43580;44.014;20.466;2023-11-21T00:04:25;245.68;;;129.98;;
57746;SDS011;43580;44.014;20.466;2023-11-21T00:06:52;248.40;;;130.50;;
57746;SDS011;43580;44.014;20.466;2023-11-21T00:09:19;234.38;;;121.82;;
57746;SDS011;43580;44.014;20.466;2023-11-21T00:11:45;231.73;;;123.80;;
57746;SDS011;43580;44.014;20.466;2023-11-21T00:14:11;231.43;;;121.95;;
57746;SDS011;43580;44.014;20.466;2023-11-21T00:16:40;243.82;;;128.85;;
57746;SDS011;43580;44.014;20.466;2023-11-21T00:19:07;257.75;;;138.50;;
57746;SDS011;43580;44.014;20.466;2023-11-21T00:21:33;237.50;;;126.45;;
57746;SDS011;43580;44.014;20.466;2023-11-21T00:23:59;235.98;;;122.88;;
57746;SDS011;43580;44.014;20.466;2023-11-21T00:26:25;270.15;;;134.20;;
57746;SDS011;43580;44.014;20.466;2023-11-21T00:28:51;212.90;;;116.50;;
57746;SDS011;43580;44.014;20.466;2023-11-21T00:31:17;220.35;;;118.75;;
57746;SDS011;43580;44.014;20.466;2023-11-21T00:33:43;234.23;;;124.07;;
57746;SDS011;43580;44.014;20.466;2023-11-21T00:36:11;244.93;;;132.57;;
57746;SDS011;43580;44.014;20.466;2023-11-21T00:38:38;245.95;;;126.40;;
57746;SDS011;43580;44.014;20.466;2023-11-21T00:41:05;250.75;;;127.82;;
57746;SDS011;43580;44.014;20.466;2023-11-21T00:43:31;480.38;;;234.20;;
57746;SDS011;43580;44.014;20.466;2023-11-21T00:45:58;405.92;;;193.15;;
57746;SDS011;43580;44.014;20.466;2023-11-21T00:48:25;294.13;;;145.48;;
57746;SDS011;43580;44.014;20.466;2023-11-21T00:50:51;268.98;;;136.32;;
57746;SDS011;43580;44.014;20.466;2023-11-21T00:53:17;249.20;;;133.20;;
57746;SDS011;43580;44.014;20.466;2023-11-21T00:55:43;246.18;;;128.93;;
57746;SDS011;43580;44.014;20.466;2023-11-21T00:58:09;265.88;;;138.93;;
57746;SDS011;43580;44.014;20.466;2023-11-21T01:00:38;283.23;;;147.57;;
57746;SDS011;43580;44.014;20.466;2023-11-21T01:03:04;267.55;;;141.43;;
57746;SDS011;43580;44.014;20.466;2023-11-21T01:05:32;256.85;;;132.65;;
57746;SDS011;43580;44.014;20.466;2023-11-21T01:08:01;241.00;;;124.25;;
57746;SDS011;43580;44.014;20.466;2023-11-21T01:10:27;317.52;;;152.63;;
57746;SDS011;43580;44.014;20.466;2023-11-21T01:12:53;199.82;;;107.22;;
57746;SDS011;43580;44.014;20.466;2023-11-21T01:15:19;180.52;;;96.25;;
57746;SDS011;43580;44.014;20.466;2023-11-21T01:17:45;170.27;;;94.72;;
57746;SDS011;43580;44.014;20.466;2023-11-21T01:20:11;184.68;;;102.18;;
57746;SDS011;43580;44.014;20.466;2023-11-21T01:22:38;206.10;;;108.00;;
57746;SDS011;43580;44.014;20.466;2023-11-21T01:25:04;195.43;;;103.70;;
57746;SDS011;43580;44.014;20.466;2023-11-21T01:27:32;208.38;;;114.90;;
57746;SDS011;43580;44.014;20.466;2023-11-21T01:29:59;222.10;;;118.60;;
57746;SDS011;43580;44.014;20.466;2023-11-21T01:32:25;229.48;;;116.50;;
57746;SDS011;43580;44.014;20.466;2023-11-21T01:34:51;216.15;;;116.47;;
57746;SDS011;43580;44.014;20.466;2023-11-21T01:37:17;211.90;;;116.80;;
57746;SDS011;43580;44.014;20.466;2023-11-21T01:39:43;227.82;;;124.10;;
57746;SDS011;43580;44.014;20.466;2023-11-21T01:42:09;205.88;;;107.45;;
57746;SDS011;43580;44.014;20.466;2023-11-21T01:44:37;212.15;;;114.57;;
57746;SDS011;43580;44.014;20.466;2023-11-21T01:47:04;239.93;;;126.47;;
57746;SDS011;43580;44.014;20.466;2023-11-21T01:49:34;200.40;;;110.95;;
57746;SDS011;43580;44.014;20.466;2023-11-21T01:52:00;178.93;;;97.55;;
57746;SDS011;43580;44.014;20.466;2023-11-21T01:54:27;171.52;;;92.05;;
57746;SDS011;43580;44.014;20.466;2023-11-21T01:56:56;172.07;;;93.25;;
57746;SDS011;43580;44.014;20.466;2023-11-21T01:59:29;220.48;;;118.20;;
57746;SDS011;43580;44.014;20.466;2023-11-21T02:01:59;210.77;;;117.25;;
57746;SDS011;43580;44.014;20.466;2023-11-21T02:04:25;224.32;;;118.53;;
57746;SDS011;43580;44.014;20.466;2023-11-21T02:06:52;238.73;;;132.57;;
57746;SDS011;43580;44.014;20.466;2023-11-21T02:09:22;255.38;;;136.18;;
57746;SDS011;43580;44.014;20.466;2023-11-21T02:11:48;234.82;;;127.63;;
57746;SDS011;43580;44.014;20.466;2023-11-21T02:14:15;229.70;;;125.15;;
57746;SDS011;43580;44.014;20.466;2023-11-21T02:16:41;268.60;;;144.88;;
57746;SDS011;43580;44.014;20.466;2023-11-21T02:19:10;261.45;;;138.02;;
57746;SDS011;43580;44.014;20.466;2023-11-21T02:21:39;257.90;;;138.15;;
57746;SDS011;43580;44.014;20.466;2023-11-21T02:24:05;257.17;;;138.75;;
57746;SDS011;43580;44.014;20.466;2023-11-21T02:26:31;243.40;;;131.38;;
57746;SDS011;43580;44.014;20.466;2023-11-21T02:28:58;238.90;;;126.15;;
57746;SDS011;43580;44.014;20.466;2023-11-21T02:31:24;238.38;;;129.73;;
57746;SDS011;43580;44.014;20.466;2023-11-21T02:33:50;230.23;;;124.78;;
57746;SDS011;43580;44.014;20.466;2023-11-21T02:36:16;233.75;;;129.13;;
57746;SDS011;43580;44.014;20.466;2023-11-21T02:38:42;221.13;;;122.88;;
57746;SDS011;43580;44.014;20.466;2023-11-21T02:41:08;198.02;;;108.65;;
57746;SDS011;43580;44.014;20.466;2023-11-21T02:43:34;194.23;;;103.78;;
57746;SDS011;43580;44.014;20.466;2023-11-21T02:46:00;175.45;;;97.25;;
57746;SDS011;43580;44.014;20.466;2023-11-21T02:48:26;178.23;;;98.65;;
57746;SDS011;43580;44.014;20.466;2023-11-21T02:50:52;172.63;;;96.00;;
57746;SDS011;43580;44.014;20.466;2023-11-21T02:53:18;170.50;;;95.88;;
57746;SDS011;43580;44.014;20.466;2023-11-21T02:55:44;147.27;;;75.88;;
57746;SDS011;43580;44.014;20.466;2023-11-21T02:58:10;127.15;;;66.47;;
57746;SDS011;43580;44.014;20.466;2023-11-21T03:00:36;140.20;;;72.78;;
57746;SDS011;43580;44.014;20.466;2023-11-21T03:03:05;124.63;;;67.90;;
57746;SDS011;43580;44.014;20.466;2023-11-21T03:05:31;121.85;;;68.60;;
57746;SDS011;43580;44.014;20.466;2023-11-21T03:08:02;117.03;;;60.05;;
57746;SDS011;43580;44.014;20.466;2023-11-21T03:10:28;118.97;;;62.38;;
57746;SDS011;43580;44.014;20.466;2023-11-21T03:12:54;122.07;;;63.42;;
57746;SDS011;43580;44.014;20.466;2023-11-21T03:15:22;115.88;;;60.40;;
57746;SDS011;43580;44.014;20.466;2023-11-21T03:17:48;125.60;;;61.58;;
57746;SDS011;43580;44.014;20.466;2023-11-21T03:20:14;121.50;;;62.97;;
57746;SDS011;43580;44.014;20.466;2023-11-21T03:22:41;113.63;;;58.60;;
57746;SDS011;43580;44.014;20.466;2023-11-21T03:25:07;113.00;;;59.05;;
57746;SDS011;43580;44.014;20.466;2023-11-21T03:27:36;99.00;;;53.63;;
57746;SDS011;43580;44.014;20.466;2023-11-21T03:30:03;109.47;;;58.80;;
57746;SDS011;43580;44.014;20.466;2023-11-21T03:32:31;102.30;;;56.55;;
57746;SDS011;43580;44.014;20.466;2023-11-21T03:35:00;111.63;;;59.25;;
57746;SDS011;43580;44.014;20.466;2023-11-21T03:37:26;117.03;;;62.47;;
57746;SDS011;43580;44.014;20.466;2023-11-21T03:39:52;117.03;;;62.63;;
57746;SDS011;43580;44.014;20.466;2023-11-21T03:42:18;108.43;;;58.80;;
57746;SDS011;43580;44.014;20.466;2023-11-21T03:44:45;105.45;;;56.28;;
57746;SDS011;43580;44.014;20.466;2023-11-21T03:47:13;106.72;;;56.03;;
57746;SDS011;43580;44.014;20.466;2023-11-21T03:49:39;102.40;;;57.25;;
57746;SDS011;43580;44.014;20.466;2023-11-21T03:52:05;103.13;;;55.53;;
57746;SDS011;43580;44.014;20.466;2023-11-21T03:54:32;100.82;;;57.80;;
57746;SDS011;43580;44.014;20.466;2023-11-21T03:56:59;111.35;;;57.97;;
57746;SDS011;43580;44.014;20.466;2023-11-21T03:59:25;115.97;;;64.63;;
57746;SDS011;43580;44.014;20.466;2023-11-21T04:01:55;122.55;;;68.80;;
57746;SDS011;43580;44.014;20.466;2023-11-21T04:04:21;129.48;;;72.55;;
57746;SDS011;43580;44.014;20.466;2023-11-21T04:06:48;108.63;;;61.20;;
57746;SDS011;43580;44.014;20.466;2023-11-21T04:09:14;104.03;;;55.95;;
57746;SDS011;43580;44.014;20.466;2023-11-21T04:11:40;101.93;;;55.22;;
57746;SDS011;43580;44.014;20.466;2023-11-21T04:14:07;100.65;;;55.35;;
57746;SDS011;43580;44.014;20.466;2023-11-21T04:16:34;106.03;;;52.65;;
57746;SDS011;43580;44.014;20.466;2023-11-21T04:19:02;106.72;;;57.55;;
57746;SDS011;43580;44.014;20.466;2023-11-21T04:21:28;103.43;;;57.53;;
57746;SDS011;43580;44.014;20.466;2023-11-21T04:23:55;99.32;;;53.63;;
57746;SDS011;43580;44.014;20.466;2023-11-21T04:26:21;103.95;;;54.28;;
57746;SDS011;43580;44.014;20.466;2023-11-21T04:28:47;92.50;;;51.97;;
57746;SDS011;43580;44.014;20.466;2023-11-21T04:31:15;93.63;;;53.55;;
57746;SDS011;43580;44.014;20.466;2023-11-21T04:33:41;105.85;;;56.95;;
57746;SDS011;43580;44.014;20.466;2023-11-21T04:36:07;103.22;;;55.58;;
57746;SDS011;43580;44.014;20.466;2023-11-21T04:38:33;102.45;;;58.70;;
57746;SDS011;43580;44.014;20.466;2023-11-21T04:41:00;106.45;;;58.95;;
57746;SDS011;43580;44.014;20.466;2023-11-21T04:43:26;110.63;;;63.53;;
57746;SDS011;43580;44.014;20.466;2023-11-21T04:45:52;130.35;;;71.47;;
57746;SDS011;43580;44.014;20.466;2023-11-21T04:48:20;150.70;;;85.45;;
57746;SDS011;43580;44.014;20.466;2023-11-21T04:50:49;143.30;;;80.45;;
57746;SDS011;43580;44.014;20.466;2023-11-21T04:53:15;152.23;;;88.85;;
57746;SDS011;43580;44.014;20.466;2023-11-21T04:55:41;160.52;;;89.13;;
57746;SDS011;43580;44.014;20.466;2023-11-21T04:58:08;164.77;;;94.40;;
57746;SDS011;43580;44.014;20.466;2023-11-21T05:00:34;179.52;;;102.15;;
57746;SDS011;43580;44.014;20.466;2023-11-21T05:03:01;182.90;;;102.28;;
57746;SDS011;43580;44.014;20.466;2023-11-21T05:05:32;170.13;;;94.03;;
57746;SDS011;43580;44.014;20.466;2023-11-21T05:07:59;180.63;;;99.93;;
57746;SDS011;43580;44.014;20.466;2023-11-21T05:10:26;173.35;;;98.07;;
57746;SDS011;43580;44.014;20.466;2023-11-21T05:12:55;174.50;;;96.20;;
57746;SDS011;43580;44.014;20.466;2023-11-21T05:15:21;175.95;;;102.82;;
57746;SDS011;43580;44.014;20.466;2023-11-21T05:17:48;168.98;;;97.95;;
57746;SDS011;43580;44.014;20.466;2023-11-21T05:20:18;173.95;;;96.65;;
57746;SDS011;43580;44.014;20.466;2023-11-21T05:22:49;176.25;;;99.97;;
57746;SDS011;43580;44.014;20.466;2023-11-21T05:25:15;162.32;;;91.63;;
57746;SDS011;43580;44.014;20.466;2023-11-21T05:27:47;172.43;;;98.25;;
57746;SDS011;43580;44.014;20.466;2023-11-21T05:30:13;204.80;;;113.75;;
57746;SDS011;43580;44.014;20.466;2023-11-21T05:32:40;174.15;;;100.35;;
57746;SDS011;43580;44.014;20.466;2023-11-21T05:35:11;181.07;;;101.07;;
57746;SDS011;43580;44.014;20.466;2023-11-21T05:37:40;178.75;;;95.15;;
57746;SDS011;43580;44.014;20.466;2023-11-21T05:40:07;154.57;;;88.50;;
57746;SDS011;43580;44.014;20.466;2023-11-21T05:42:34;144.65;;;84.00;;
57746;SDS011;43580;44.014;20.466;2023-11-21T05:45:00;131.95;;;73.97;;
57746;SDS011;43580;44.014;20.466;2023-11-21T05:47:35;125.35;;;74.47;;
57746;SDS011;43580;44.014;20.466;2023-11-21T05:50:02;116.85;;;70.57;;
57746;SDS011;43580;44.014;20.466;2023-11-21T05:52:28;109.05;;;62.00;;
57746;SDS011;43580;44.014;20.466;2023-11-21T05:54:55;115.90;;;68.45;;
57746;SDS011;43580;44.014;20.466;2023-11-21T05:57:23;114.95;;;68.43;;
57746;SDS011;43580;44.014;20.466;2023-11-21T05:59:49;198.35;;;108.20;;
57746;SDS011;43580;44.014;20.466;2023-11-21T06:02:16;158.18;;;92.82;;
57746;SDS011;43580;44.014;20.466;2023-11-21T06:04:43;163.65;;;93.88;;
57746;SDS011;43580;44.014;20.466;2023-11-21T06:07:09;170.52;;;96.30;;
57746;SDS011;43580;44.014;20.466;2023-11-21T06:09:35;157.07;;;89.07;;
57746;SDS011;43580;44.014;20.466;2023-11-21T06:12:02;156.80;;;84.15;;
57746;SDS011;43580;44.014;20.466;2023-11-21T06:14:29;163.57;;;86.72;;
57746;SDS011;43580;44.014;20.466;2023-11-21T06:17:00;124.90;;;66.22;;
57746;SDS011;43580;44.014;20.466;2023-11-21T06:19:26;160.18;;;86.22;;
57746;SDS011;43580;44.014;20.466;2023-11-21T06:21:52;148.98;;;83.40;;
57746;SDS011;43580;44.014;20.466;2023-11-21T06:24:18;182.55;;;113.57;;
57746;SDS011;43580;44.014;20.466;2023-11-21T06:26:46;135.43;;;80.68;;
57746;SDS011;43580;44.014;20.466;2023-11-21T06:29:13;136.88;;;77.68;;
57746;SDS011;43580;44.014;20.466;2023-11-21T06:31:40;133.88;;;76.40;;
57746;SDS011;43580;44.014;20.466;2023-11-21T06:34:06;130.90;;;70.03;;
57746;SDS011;43580;44.014;20.466;2023-11-21T06:36:35;121.57;;;69.32;;
57746;SDS011;43580;44.014;20.466;2023-11-21T06:39:01;121.93;;;66.63;;
57746;SDS011;43580;44.014;20.466;2023-11-21T06:41:27;114.53;;;67.35;;
57746;SDS011;43580;44.014;20.466;2023-11-21T06:43:54;124.93;;;70.22;;
57746;SDS011;43580;44.014;20.466;2023-11-21T06:46:20;127.88;;;71.95;;
57746;SDS011;43580;44.014;20.466;2023-11-21T06:48:46;180.07;;;101.20;;
57746;SDS011;43580;44.014;20.466;2023-11-21T06:51:15;220.90;;;122.45;;
57746;SDS011;43580;44.014;20.466;2023-11-21T06:53:41;150.00;;;92.47;;
57746;SDS011;43580;44.014;20.466;2023-11-21T06:56:25;136.57;;;78.85;;
57746;SDS011;43580;44.014;20.466;2023-11-21T06:58:51;233.13;;;130.18;;
57746;SDS011;43580;44.014;20.466;2023-11-21T07:01:21;121.45;;;71.55;;
57746;SDS011;43580;44.014;20.466;2023-11-21T07:03:48;158.52;;;84.07;;
57746;SDS011;43580;44.014;20.466;2023-11-21T07:06:14;152.68;;;90.22;;
57746;SDS011;43580;44.014;20.466;2023-11-21T07:08:40;170.95;;;90.55;;
57746;SDS011;43580;44.014;20.466;2023-11-21T07:11:07;134.10;;;79.47;;
57746;SDS011;43580;44.014;20.466;2023-11-21T07:13:33;138.73;;;82.00;;
57746;SDS011;43580;44.014;20.466;2023-11-21T07:16:00;141.15;;;83.50;;
57746;SDS011;43580;44.014;20.466;2023-11-21T07:18:26;150.85;;;93.03;;
57746;SDS011;43580;44.014;20.466;2023-11-21T07:20:52;186.45;;;108.97;;
57746;SDS011;43580;44.014;20.466;2023-11-21T07:23:18;177.18;;;105.30;;
57746;SDS011;43580;44.014;20.466;2023-11-21T07:25:44;176.98;;;108.13;;
57746;SDS011;43580;44.014;20.466;2023-11-21T07:28:10;182.52;;;109.85;;
57746;SDS011;43580;44.014;20.466;2023-11-21T07:30:36;205.90;;;123.32;;
57746;SDS011;43580;44.014;20.466;2023-11-21T07:33:05;183.60;;;109.40;;
57746;SDS011;43580;44.014;20.466;2023-11-21T07:35:32;174.70;;;107.13;;
57746;SDS011;43580;44.014;20.466;2023-11-21T07:37:59;204.00;;;117.25;;
57746;SDS011;43580;44.014;20.466;2023-11-21T07:40:28;204.10;;;124.72;;
57746;SDS011;43580;44.014;20.466;2023-11-21T07:42:57;211.65;;;127.35;;
57746;SDS011;43580;44.014;20.466;2023-11-21T07:45:23;188.13;;;111.13;;
57746;SDS011;43580;44.014;20.466;2023-11-21T07:47:54;183.95;;;106.90;;
57746;SDS011;43580;44.014;20.466;2023-11-21T07:50:23;156.55;;;98.18;;
57746;SDS011;43580;44.014;20.466;2023-11-21T07:52:51;158.63;;;96.93;;
57746;SDS011;43580;44.014;20.466;2023-11-21T07:55:19;160.00;;;91.00;;
57746;SDS011;43580;44.014;20.466;2023-11-21T07:57:45;165.77;;;92.65;;
57746;SDS011;43580;44.014;20.466;2023-11-21T08:00:11;171.05;;;96.95;;
57746;SDS011;43580;44.014;20.466;2023-11-21T08:02:40;198.05;;;113.80;;
57746;SDS011;43580;44.014;20.466;2023-11-21T08:05:07;242.02;;;138.82;;
57746;SDS011;43580;44.014;20.466;2023-11-21T08:07:36;225.85;;;135.65;;
57746;SDS011;43580;44.014;20.466;2023-11-21T08:10:02;191.40;;;118.68;;
57746;SDS011;43580;44.014;20.466;2023-11-21T08:12:29;186.85;;;118.28;;
57746;SDS011;43580;44.014;20.466;2023-11-21T08:14:56;167.60;;;103.40;;
57746;SDS011;43580;44.014;20.466;2023-11-21T08:17:22;153.43;;;97.13;;
57746;SDS011;43580;44.014;20.466;2023-11-21T08:19:50;145.77;;;92.68;;
57746;SDS011;43580;44.014;20.466;2023-11-21T08:22:17;158.38;;;97.13;;
57746;SDS011;43580;44.014;20.466;2023-11-21T08:24:44;147.60;;;92.05;;
57746;SDS011;43580;44.014;20.466;2023-11-21T08:27:11;150.00;;;91.63;;
57746;SDS011;43580;44.014;20.466;2023-11-21T08:29:41;143.45;;;90.20;;
57746;SDS011;43580;44.014;20.466;2023-11-21T08:32:07;162.55;;;104.20;;
57746;SDS011;43580;44.014;20.466;2023-11-21T08:34:33;171.63;;;107.47;;
57746;SDS011;43580;44.014;20.466;2023-11-21T08:37:02;171.57;;;103.95;;
57746;SDS011;43580;44.014;20.466;2023-11-21T08:39:28;177.73;;;111.93;;
57746;SDS011;43580;44.014;20.466;2023-11-21T08:41:55;188.63;;;117.45;;
57746;SDS011;43580;44.014;20.466;2023-11-21T08:44:21;166.07;;;107.70;;
57746;SDS011;43580;44.014;20.466;2023-11-21T08:46:50;169.52;;;106.18;;
57746;SDS011;43580;44.014;20.466;2023-11-21T08:49:21;155.80;;;99.10;;
57746;SDS011;43580;44.014;20.466;2023-11-21T08:51:47;133.85;;;87.88;;
57746;SDS011;43580;44.014;20.466;2023-11-21T08:54:13;93.65;;;59.88;;
57746;SDS011;43580;44.014;20.466;2023-11-21T08:56:45;154.60;;;97.47;;
57746;SDS011;43580;44.014;20.466;2023-11-21T08:59:15;176.90;;;111.72;;
57746;SDS011;43580;44.014;20.466;2023-11-21T09:01:41;130.43;;;78.40;;
57746;SDS011;43580;44.014;20.466;2023-11-21T09:04:12;129.65;;;80.25;;
57746;SDS011;43580;44.014;20.466;2023-11-21T09:06:38;124.43;;;82.30;;
57746;SDS011;43580;44.014;20.466;2023-11-21T09:09:07;84.30;;;55.55;;
57746;SDS011;43580;44.014;20.466;2023-11-21T09:11:35;84.55;;;53.83;;
57746;SDS011;43580;44.014;20.466;2023-11-21T09:14:02;93.20;;;61.90;;
57746;SDS011;43580;44.014;20.466;2023-11-21T09:16:31;102.88;;;66.32;;
57746;SDS011;43580;44.014;20.466;2023-11-21T09:19:00;101.22;;;63.63;;
57746;SDS011;43580;44.014;20.466;2023-11-21T09:21:26;112.72;;;67.18;;
57746;SDS011;43580;44.014;20.466;2023-11-21T09:23:54;103.93;;;65.82;;
57746;SDS011;43580;44.014;20.466;2023-11-21T09:26:23;112.03;;;73.13;;
57746;SDS011;43580;44.014;20.466;2023-11-21T09:28:49;111.05;;;72.38;;
57746;SDS011;43580;44.014;20.466;2023-11-21T09:31:15;403.98;;;142.07;;
57746;SDS011;43580;44.014;20.466;2023-11-21T09:33:49;445.33;;;158.77;;
57746;SDS011;43580;44.014;20.466;2023-11-21T09:36:18;366.42;;;138.57;;
57746;SDS011;43580;44.014;20.466;2023-11-21T09:38:44;237.88;;;104.93;;
57746;SDS011;43580;44.014;20.466;2023-11-21T09:41:21;158.02;;;80.78;;
57746;SDS011;43580;44.014;20.466;2023-11-21T09:43:52;126.97;;;69.57;;
57746;SDS011;43580;44.014;20.466;2023-11-21T09:46:20;117.57;;;69.97;;
57746;SDS011;43580;44.014;20.466;2023-11-21T09:48:50;108.43;;;65.70;;
57746;SDS011;43580;44.014;20.466;2023-11-21T09:51:18;122.93;;;80.13;;
57746;SDS011;43580;44.014;20.466;2023-11-21T09:53:48;93.93;;;60.65;;
57746;SDS011;43580;44.014;20.466;2023-11-21T09:56:19;152.75;;;96.70;;
57746;SDS011;43580;44.014;20.466;2023-11-21T09:58:52;127.75;;;82.78;;
57746;SDS011;43580;44.014;20.466;2023-11-21T10:01:19;114.68;;;77.20;;
57746;SDS011;43580;44.014;20.466;2023-11-21T10:03:46;91.60;;;61.45;;
57746;SDS011;43580;44.014;20.466;2023-11-21T10:06:13;95.22;;;63.00;;
57746;SDS011;43580;44.014;20.466;2023-11-21T10:08:39;92.47;;;63.45;;
57746;SDS011;43580;44.014;20.466;2023-11-21T10:11:05;106.85;;;72.60;;
57746;SDS011;43580;44.014;20.466;2023-11-21T10:13:32;91.50;;;62.47;;
57746;SDS011;43580;44.014;20.466;2023-11-21T10:15:59;93.97;;;64.90;;
57746;SDS011;43580;44.014;20.466;2023-11-21T10:18:30;88.80;;;54.65;;
57746;SDS011;43580;44.014;20.466;2023-11-21T10:20:59;79.60;;;52.83;;
57746;SDS011;43580;44.014;20.466;2023-11-21T10:23:29;74.50;;;51.10;;
57746;SDS011;43580;44.014;20.466;2023-11-21T10:25:55;74.80;;;52.45;;
57746;SDS011;43580;44.014;20.466;2023-11-21T10:28:21;82.68;;;53.72;;
57746;SDS011;43580;44.014;20.466;2023-11-21T10:30:47;83.15;;;54.95;;
57746;SDS011;43580;44.014;20.466;2023-11-21T10:33:13;92.38;;;59.25;;
57746;SDS011;43580;44.014;20.466;2023-11-21T10:38:08;113.45;;;81.32;;
57746;SDS011;43580;44.014;20.466;2023-11-21T10:40:37;99.07;;;66.82;;
57746;SDS011;43580;44.014;20.466;2023-11-21T10:43:07;96.10;;;63.70;;
57746;SDS011;43580;44.014;20.466;2023-11-21T10:45:34;129.43;;;92.82;;
57746;SDS011;43580;44.014;20.466;2023-11-21T10:48:04;121.38;;;87.90;;
57746;SDS011;43580;44.014;20.466;2023-11-21T10:50:32;95.13;;;63.95;;
57746;SDS011;43580;44.014;20.466;2023-11-21T10:53:00;101.28;;;69.97;;
57746;SDS011;43580;44.014;20.466;2023-11-21T10:55:27;111.35;;;79.72;;
57746;SDS011;43580;44.014;20.466;2023-11-21T10:57:58;137.65;;;96.05;;
57746;SDS011;43580;44.014;20.466;2023-11-21T11:00:24;166.35;;;104.30;;
57746;SDS011;43580;44.014;20.466;2023-11-21T11:02:52;144.40;;;97.00;;
57746;SDS011;43580;44.014;20.466;2023-11-21T11:05:20;142.57;;;100.15;;
57746;SDS011;43580;44.014;20.466;2023-11-21T11:07:52;143.55;;;100.65;;
57746;SDS011;43580;44.014;20.466;2023-11-21T11:10:27;169.10;;;118.97;;
57746;SDS011;43580;44.014;20.466;2023-11-21T11:12:57;168.98;;;111.22;;
57746;SDS011;43580;44.014;20.466;2023-11-21T11:15:26;184.88;;;115.07;;
57746;SDS011;43580;44.014;20.466;2023-11-21T11:17:53;169.73;;;109.32;;
57746;SDS011;43580;44.014;20.466;2023-11-21T11:20:22;258.33;;;132.73;;
57746;SDS011;43580;44.014;20.466;2023-11-21T11:28:11;152.27;;;110.68;;
57746;SDS011;43580;44.014;20.466;2023-11-21T11:38:37;170.50;;;119.07;;
57746;SDS011;43580;44.014;20.466;2023-11-21T11:41:04;176.05;;;122.65;;
57746;SDS011;43580;44.014;20.466;2023-11-21T11:43:30;157.73;;;110.45;;
57746;SDS011;43580;44.014;20.466;2023-11-21T11:46:09;159.13;;;114.05;;
57746;SDS011;43580;44.014;20.466;2023-11-21T11:48:48;173.32;;;112.85;;
57746;SDS011;43580;44.014;20.466;2023-11-21T11:51:15;266.63;;;166.57;;
57746;SDS011;43580;44.014;20.466;2023-11-21T11:53:46;261.13;;;162.20;;
57746;SDS011;43580;44.014;20.466;2023-11-21T11:56:22;282.02;;;177.02;;
57746;SDS011;43580;44.014;20.466;2023-11-21T11:58:51;268.02;;;179.02;;
57746;SDS011;43580;44.014;20.466;2023-11-21T12:01:20;213.82;;;137.35;;
57746;SDS011;43580;44.014;20.466;2023-11-21T12:07:02;235.95;;;156.02;;
57746;SDS011;43580;44.014;20.466;2023-11-21T12:09:29;244.48;;;165.10;;
57746;SDS011;43580;44.014;20.466;2023-11-21T12:11:56;220.80;;;146.52;;
57746;SDS011;43580;44.014;20.466;2023-11-21T12:14:22;177.15;;;124.90;;
57746;SDS011;43580;44.014;20.466;2023-11-21T12:16:49;213.70;;;145.07;;
57746;SDS011;43580;44.014;20.466;2023-11-21T12:19:16;182.38;;;127.05;;
57746;SDS011;43580;44.014;20.466;2023-11-21T12:21:42;149.68;;;105.55;;
57746;SDS011;43580;44.014;20.466;2023-11-21T12:24:13;164.52;;;116.70;;
57746;SDS011;43580;44.014;20.466;2023-11-21T12:26:41;206.40;;;135.02;;
57746;SDS011;43580;44.014;20.466;2023-11-21T12:29:07;200.57;;;134.77;;
57746;SDS011;43580;44.014;20.466;2023-11-21T12:31:36;194.98;;;131.70;;
57746;SDS011;43580;44.014;20.466;2023-11-21T12:34:02;208.43;;;141.50;;
57746;SDS011;43580;44.014;20.466;2023-11-21T12:36:29;197.70;;;128.38;;
57746;SDS011;43580;44.014;20.466;2023-11-21T12:38:59;191.40;;;129.55;;
57746;SDS011;43580;44.014;20.466;2023-11-21T12:41:27;183.82;;;125.93;;
57746;SDS011;43580;44.014;20.466;2023-11-21T12:43:54;210.82;;;146.68;;
57746;SDS011;43580;44.014;20.466;2023-11-21T12:46:20;208.55;;;141.27;;
57746;SDS011;43580;44.014;20.466;2023-11-21T12:48:47;213.23;;;146.15;;
57746;SDS011;43580;44.014;20.466;2023-11-21T12:51:13;202.82;;;140.07;;
57746;SDS011;43580;44.014;20.466;2023-11-21T12:53:39;222.35;;;152.70;;
57746;SDS011;43580;44.014;20.466;2023-11-21T12:56:12;218.73;;;149.85;;
57746;SDS011;43580;44.014;20.466;2023-11-21T12:58:38;230.38;;;157.65;;
57746;SDS011;43580;44.014;20.466;2023-11-21T13:01:08;261.67;;;186.90;;
57746;SDS011;43580;44.014;20.466;2023-11-21T13:03:39;194.63;;;136.73;;
57746;SDS011;43580;44.014;20.466;2023-11-21T13:06:10;186.05;;;131.50;;
57746;SDS011;43580;44.014;20.466;2023-11-21T13:08:37;205.00;;;142.18;;
57746;SDS011;43580;44.014;20.466;2023-11-21T13:11:04;212.13;;;145.65;;
57746;SDS011;43580;44.014;20.466;2023-11-21T13:13:33;245.25;;;169.95;;
57746;SDS011;43580;44.014;20.466;2023-11-21T13:16:00;276.15;;;190.45;;
57746;SDS011;43580;44.014;20.466;2023-11-21T13:18:26;219.15;;;151.57;;
57746;SDS011;43580;44.014;20.466;2023-11-21T13:20:53;220.32;;;151.48;;
57746;SDS011;43580;44.014;20.466;2023-11-21T13:23:20;245.75;;;169.48;;
57746;SDS011;43580;44.014;20.466;2023-11-21T13:25:47;319.58;;;221.65;;
57746;SDS011;43580;44.014;20.466;2023-11-21T13:28:15;294.52;;;206.13;;
57746;SDS011;43580;44.014;20.466;2023-11-21T13:30:43;245.20;;;171.38;;
57746;SDS011;43580;44.014;20.466;2023-11-21T13:33:10;261.17;;;178.27;;
57746;SDS011;43580;44.014;20.466;2023-11-21T13:35:42;169.35;;;115.47;;
57746;SDS011;43580;44.014;20.466;2023-11-21T13:38:16;190.50;;;131.13;;
57746;SDS011;43580;44.014;20.466;2023-11-21T13:40:49;221.13;;;147.32;;
57746;SDS011;43580;44.014;20.466;2023-11-21T13:43:19;225.10;;;144.05;;
57746;SDS011;43580;44.014;20.466;2023-11-21T13:45:51;153.00;;;105.13;;
57746;SDS011;43580;44.014;20.466;2023-11-21T13:51:02;137.95;;;94.13;;
57746;SDS011;43580;44.014;20.466;2023-11-21T13:53:42;193.85;;;132.27;;
57746;SDS011;43580;44.014;20.466;2023-11-21T13:56:09;206.88;;;137.13;;
57746;SDS011;43580;44.014;20.466;2023-11-21T13:58:36;197.07;;;133.85;;
57746;SDS011;43580;44.014;20.466;2023-11-21T14:01:15;163.35;;;115.75;;
57746;SDS011;43580;44.014;20.466;2023-11-21T14:04:03;259.35;;;186.30;;
57746;SDS011;43580;44.014;20.466;2023-11-21T14:06:49;231.65;;;161.90;;
57746;SDS011;43580;44.014;20.466;2023-11-21T14:09:20;229.27;;;160.10;;
57746;SDS011;43580;44.014;20.466;2023-11-21T14:11:54;263.80;;;178.38;;
57746;SDS011;43580;44.014;20.466;2023-11-21T14:14:24;217.48;;;147.05;;
57746;SDS011;43580;44.014;20.466;2023-11-21T14:16:51;229.18;;;150.43;;